createdAt,value
2019-03-28T00:00:08.514Z,8.49
2019-03-28T00:01:08.500Z,8.41
2019-03-28T00:02:08.505Z,8.48
2019-03-28T00:03:08.489Z,8.36
2019-03-28T00:04:08.475Z,8.36
2019-03-28T00:05:08.462Z,8.36
2019-03-28T00:06:08.467Z,8.41
2019-03-28T00:07:08.441Z,8.38
2019-03-28T00:08:08.432Z,8.36
2019-03-28T00:09:08.425Z,8.37
2019-03-28T00:10:08.415Z,8.44
2019-03-28T00:11:08.412Z,8.46
2019-03-28T00:12:08.386Z,8.48
2019-03-28T00:13:08.406Z,8.38
2019-03-28T00:14:08.364Z,8.46
2019-03-28T00:15:08.427Z,8.34
2019-03-28T00:16:08.352Z,8.45
2019-03-28T00:17:08.337Z,8.46
2019-03-28T00:18:08.328Z,8.37
2019-03-28T00:19:08.328Z,8.37
2019-03-28T00:20:08.304Z,8.36
2019-03-28T00:21:08.287Z,8.37
2019-03-28T00:22:08.286Z,8.45
2019-03-28T00:23:08.267Z,8.41
2019-03-28T00:24:08.280Z,8.33
2019-03-28T00:25:08.256Z,8.42
2019-03-28T00:26:08.241Z,8.36
2019-03-28T00:27:08.229Z,8.34
2019-03-28T00:28:08.221Z,8.31
2019-03-28T00:29:08.221Z,8.38
2019-03-28T05:00:40.496Z,7.43
2019-03-28T05:01:40.465Z,7.47
2019-03-28T05:02:40.479Z,7.50
2019-03-28T05:03:40.450Z,7.53
2019-03-28T05:04:40.605Z,7.47
2019-03-28T05:05:40.431Z,7.60
2019-03-28T05:06:40.437Z,7.58
2019-03-28T05:07:40.407Z,7.70
2019-03-28T05:08:40.402Z,7.73
2019-03-28T05:09:40.385Z,7.87
2019-03-28T05:10:40.388Z,7.77
2019-03-28T05:11:40.383Z,7.85
2019-03-28T05:12:40.350Z,7.88
2019-03-28T05:13:40.339Z,7.95
2019-03-28T05:14:40.429Z,7.94
2019-03-28T05:15:40.336Z,8.03
2019-03-28T05:16:40.338Z,8.00
2019-03-28T05:17:40.589Z,8.10
2019-03-28T05:18:40.290Z,8.08
2019-03-28T05:19:40.273Z,8.19
2019-03-28T05:20:40.507Z,8.19
2019-03-28T05:21:40.257Z,8.23
2019-03-28T05:22:47.298Z,8.24
2019-03-28T05:23:40.584Z,8.18
2019-03-28T05:24:40.222Z,8.31
2019-03-28T05:25:40.218Z,8.30
2019-03-28T05:26:40.203Z,8.30
2019-03-28T05:27:40.211Z,8.27
2019-03-28T05:28:40.188Z,8.31
2019-03-28T05:29:40.178Z,8.31
2019-03-28T05:30:40.161Z,8.30
2019-03-28T05:31:40.153Z,8.33
2019-03-28T05:32:40.147Z,8.33
2019-03-28T05:33:40.150Z,8.36
2019-03-28T05:34:40.117Z,8.36
2019-03-28T05:35:40.106Z,8.33
2019-03-28T05:36:40.095Z,8.41
2019-03-28T05:37:40.114Z,8.34
2019-03-28T05:38:40.077Z,8.48
2019-03-28T05:39:40.084Z,8.41
2019-03-28T05:40:40.070Z,8.45
2019-03-28T05:41:40.042Z,8.42
2019-03-28T05:42:40.032Z,8.36
2019-03-28T05:43:40.026Z,8.48
2019-03-28T05:44:40.043Z,8.49
2019-03-28T05:45:40.008Z,8.46
2019-03-28T05:46:39.990Z,8.42
2019-03-28T05:47:39.980Z,8.46
2019-03-28T05:48:39.972Z,8.46
2019-03-28T05:49:39.987Z,8.49
2019-03-28T05:50:39.956Z,8.49
2019-03-28T05:51:39.945Z,8.51
2019-03-28T05:52:40.059Z,8.52
2019-03-28T05:53:39.912Z,8.61
2019-03-28T05:54:39.925Z,8.53
2019-03-28T05:55:39.902Z,8.61
2019-03-28T05:56:39.886Z,8.64
2019-03-28T05:57:39.897Z,8.63
2019-03-28T05:58:39.864Z,8.69
2019-03-28T05:59:39.854Z,8.69
2019-03-28T06:00:40.373Z,8.69
2019-03-28T06:01:39.834Z,8.71
2019-03-28T06:02:39.821Z,8.74
2019-03-28T06:03:39.833Z,8.76
2019-03-28T06:04:39.812Z,8.73
2019-03-28T06:05:39.790Z,8.82
2019-03-28T06:06:39.787Z,8.71
2019-03-28T06:07:39.778Z,8.78
2019-03-28T06:08:39.770Z,8.92
2019-03-28T06:09:40.373Z,8.82
2019-03-28T06:10:39.797Z,8.85
2019-03-28T06:11:39.749Z,8.88
2019-03-28T06:12:39.725Z,9.03
2019-03-28T06:13:39.702Z,9.04
2019-03-28T06:14:39.690Z,9.00
2019-03-28T06:15:40.997Z,8.99
2019-03-28T06:16:39.670Z,9.11
2019-03-28T06:17:39.668Z,9.06
2019-03-28T06:18:39.662Z,9.02
2019-03-28T06:19:39.651Z,9.03
2019-03-28T06:20:39.630Z,9.14
2019-03-28T06:21:39.888Z,9.11
2019-03-28T06:22:39.862Z,9.14
2019-03-28T06:23:39.641Z,9.06
2019-03-28T06:24:39.590Z,9.19
2019-03-28T06:25:41.009Z,9.22
2019-03-28T06:26:39.576Z,9.14
2019-03-28T06:27:39.559Z,9.19
2019-03-28T06:28:39.538Z,9.21
2019-03-28T06:29:39.536Z,9.23
2019-03-28T06:30:39.540Z,9.18
2019-03-28T06:31:39.527Z,9.23
2019-03-28T06:32:43.206Z,9.26
2019-03-28T06:33:39.506Z,9.28
2019-03-28T06:34:39.479Z,9.22
2019-03-28T06:35:39.466Z,9.23
2019-03-28T06:36:40.396Z,9.26
2019-03-28T06:37:39.456Z,9.26
2019-03-28T06:38:39.449Z,9.36
2019-03-28T06:39:39.421Z,9.32
2019-03-28T06:40:39.522Z,9.41
2019-03-28T06:41:39.404Z,9.36
2019-03-28T06:42:39.407Z,9.41
2019-03-28T06:43:41.980Z,9.34
2019-03-28T06:44:39.402Z,9.43
2019-03-28T06:45:39.354Z,9.39
2019-03-28T06:46:39.349Z,9.39
2019-03-28T06:47:39.336Z,9.34
2019-03-28T06:48:39.322Z,9.41
2019-03-28T06:49:39.325Z,9.36
2019-03-28T06:50:39.340Z,9.39
2019-03-28T06:51:39.303Z,9.37
2019-03-28T06:52:39.289Z,9.36
2019-03-28T06:53:39.274Z,9.46
2019-03-28T06:54:39.262Z,9.48
2019-03-28T06:55:39.268Z,9.47
2019-03-28T06:56:39.247Z,9.50
2019-03-28T06:57:39.228Z,9.59
2019-03-28T06:58:39.222Z,9.56
2019-03-28T06:59:39.221Z,9.51
2019-03-28T07:00:39.224Z,9.56
2019-03-28T07:01:39.198Z,9.66
2019-03-28T07:02:39.176Z,9.61
2019-03-28T07:03:39.170Z,9.72
2019-03-28T07:04:39.164Z,9.73
2019-03-28T07:05:39.158Z,9.79
2019-03-28T07:06:39.135Z,9.80
2019-03-28T07:07:39.128Z,9.89
2019-03-28T07:08:39.109Z,9.92
2019-03-28T07:09:39.104Z,9.89
2019-03-28T07:10:39.095Z,9.86
2019-03-28T07:11:39.101Z,9.87
2019-03-28T07:12:39.067Z,10.02
2019-03-28T07:13:39.075Z,9.99
2019-03-28T07:14:39.062Z,9.99
2019-03-28T07:15:39.077Z,10.02
2019-03-28T07:16:39.048Z,9.99
2019-03-28T07:17:39.113Z,10.12
2019-03-28T07:18:39.018Z,10.19
2019-03-28T07:19:38.995Z,10.17
2019-03-28T07:20:38.986Z,10.17
2019-03-28T07:21:38.971Z,10.23
2019-03-28T07:22:38.960Z,10.37
2019-03-28T07:23:38.967Z,10.40
2019-03-28T07:24:38.942Z,10.35
2019-03-28T07:25:38.933Z,10.41
2019-03-28T07:26:38.919Z,10.46
2019-03-28T07:27:38.921Z,10.54
2019-03-28T07:28:38.908Z,10.60
2019-03-28T07:29:50.262Z,10.64
2019-03-28T07:30:39.874Z,10.64
2019-03-28T07:31:38.873Z,10.69
2019-03-28T07:32:38.857Z,10.75
2019-03-28T07:33:38.863Z,10.76
2019-03-28T07:34:38.831Z,10.87
2019-03-28T07:35:38.818Z,11.02
2019-03-28T07:36:38.807Z,11.00
2019-03-28T07:37:38.809Z,11.05
2019-03-28T07:38:45.850Z,11.08
2019-03-28T07:39:45.814Z,11.19
2019-03-28T07:40:46.297Z,11.18
2019-03-28T07:41:46.290Z,11.32
2019-03-28T07:42:45.810Z,11.35
2019-03-28T07:43:45.805Z,11.26
2019-03-28T07:44:45.815Z,11.27
2019-03-28T07:45:45.807Z,11.22
2019-03-28T07:46:47.627Z,11.18
2019-03-28T07:47:46.236Z,11.15
2019-03-28T07:48:38.683Z,11.22
2019-03-28T07:49:38.691Z,11.18
2019-03-28T07:50:38.668Z,11.25
2019-03-28T07:51:38.666Z,11.27
2019-03-28T07:52:38.643Z,11.27
2019-03-28T07:53:38.638Z,11.35
2019-03-28T07:54:39.309Z,11.35
2019-03-28T07:55:38.621Z,11.33
2019-03-28T07:56:38.599Z,11.48
2019-03-28T07:57:38.631Z,11.40
2019-03-28T07:58:38.607Z,11.45
2019-03-28T07:59:38.560Z,11.57
2019-03-28T08:00:38.586Z,11.57
2019-03-28T08:01:38.559Z,11.60
2019-03-28T08:02:38.530Z,11.72
2019-03-28T08:03:39.950Z,11.83
2019-03-28T08:04:38.513Z,11.88
2019-03-28T08:05:38.492Z,12.04
2019-03-28T08:06:49.229Z,12.17
2019-03-28T08:07:45.354Z,12.17
2019-03-28T08:08:40.786Z,12.35
2019-03-28T08:09:38.457Z,12.45
2019-03-28T08:10:38.447Z,12.54
2019-03-28T08:11:38.809Z,12.67
2019-03-28T08:12:38.422Z,12.75
2019-03-28T08:13:38.413Z,12.80
2019-03-28T08:14:38.400Z,12.90
2019-03-28T08:15:38.389Z,12.93
2019-03-28T08:16:38.405Z,12.97
2019-03-28T08:17:38.371Z,13.00
2019-03-28T08:18:38.367Z,13.08
2019-03-28T08:19:41.529Z,13.19
2019-03-28T08:20:38.330Z,13.22
2019-03-28T08:21:38.348Z,13.22
2019-03-28T08:22:38.313Z,13.44
2019-03-28T08:23:38.312Z,13.37
2019-03-28T08:24:38.296Z,13.37
2019-03-28T08:25:38.280Z,13.35
2019-03-28T08:26:38.276Z,13.25
2019-03-28T08:27:38.311Z,13.30
2019-03-28T08:28:38.257Z,13.35
2019-03-28T08:29:38.250Z,13.28
2019-03-28T08:30:38.224Z,13.23
2019-03-28T08:31:40.728Z,13.30
2019-03-28T08:32:39.882Z,13.30
2019-03-28T08:33:38.200Z,13.37
2019-03-28T08:34:38.209Z,13.44
2019-03-28T08:35:38.181Z,13.46
2019-03-28T08:36:38.163Z,13.53
2019-03-28T08:37:38.146Z,13.60
2019-03-28T08:38:38.139Z,13.75
2019-03-28T08:39:38.145Z,13.83
2019-03-28T08:40:39.818Z,13.85
2019-03-28T08:41:38.108Z,13.96
2019-03-28T08:42:38.099Z,13.86
2019-03-28T08:43:38.136Z,13.93
2019-03-28T08:44:38.674Z,14.03
2019-03-28T08:45:38.086Z,14.00
2019-03-28T08:46:38.069Z,14.03
2019-03-28T08:47:38.045Z,13.97
2019-03-28T08:48:38.032Z,13.97
2019-03-28T08:49:38.020Z,13.97
2019-03-28T08:50:38.021Z,13.95
2019-03-28T08:51:38.012Z,13.92
2019-03-28T08:52:38.005Z,13.86
2019-03-28T08:53:37.989Z,13.83
2019-03-28T08:54:37.972Z,13.87
2019-03-28T08:55:37.968Z,13.93
2019-03-28T08:56:37.990Z,13.85
2019-03-28T08:57:37.935Z,13.72
2019-03-28T08:58:38.400Z,13.77
2019-03-28T08:59:37.926Z,13.81
2019-03-28T09:00:50.890Z,13.79
2019-03-28T09:01:38.967Z,13.79
2019-03-28T09:02:37.879Z,13.79
2019-03-28T09:03:38.072Z,13.78
2019-03-28T09:04:37.859Z,13.68
2019-03-28T09:05:37.854Z,13.72
2019-03-28T09:06:37.854Z,13.68
2019-03-28T09:07:37.854Z,13.70
2019-03-28T09:08:37.832Z,13.70
2019-03-28T09:09:37.812Z,13.70
2019-03-28T09:10:37.796Z,13.78
2019-03-28T09:11:37.810Z,13.77
2019-03-28T09:12:37.806Z,13.81
2019-03-28T09:13:37.793Z,13.81
2019-03-28T09:14:37.755Z,13.79
2019-03-28T09:15:43.535Z,13.75
2019-03-28T09:16:38.737Z,13.87
2019-03-28T09:17:37.732Z,13.89
2019-03-28T09:18:37.713Z,13.96
2019-03-28T09:19:39.114Z,13.99
2019-03-28T09:20:37.699Z,14.00
2019-03-28T09:21:37.689Z,14.10
2019-03-28T09:22:39.119Z,14.15
2019-03-28T09:23:37.680Z,14.15
2019-03-28T09:24:37.651Z,14.22
2019-03-28T09:25:37.645Z,14.32
2019-03-28T09:26:37.639Z,14.29
2019-03-28T09:27:37.976Z,14.32
2019-03-28T09:28:37.809Z,14.45
2019-03-28T09:29:37.917Z,14.44
2019-03-28T09:30:48.043Z,14.45
2019-03-28T09:31:38.575Z,14.63
2019-03-28T09:32:37.599Z,14.65
2019-03-28T09:33:40.533Z,14.65
2019-03-28T09:34:37.543Z,14.66
2019-03-28T09:35:37.554Z,14.72
2019-03-28T09:36:37.533Z,14.63
2019-03-28T09:37:37.515Z,14.68
2019-03-28T09:38:37.509Z,14.70
2019-03-28T09:39:37.506Z,14.69
2019-03-28T09:40:37.484Z,14.70
2019-03-28T09:41:37.471Z,14.73
2019-03-28T09:42:37.564Z,14.79
2019-03-28T09:43:37.449Z,14.86
2019-03-28T09:44:37.471Z,14.89
2019-03-28T09:45:37.429Z,14.99
2019-03-28T09:46:37.414Z,14.99
2019-03-28T09:47:37.401Z,15.14
2019-03-28T09:48:37.388Z,15.15
2019-03-28T09:49:37.380Z,15.35
2019-03-28T09:50:37.466Z,15.40
2019-03-28T09:51:37.360Z,15.49
2019-03-28T09:52:37.360Z,15.51
2019-03-28T09:53:37.358Z,15.65
2019-03-28T09:54:37.342Z,15.76
2019-03-28T09:55:37.314Z,15.90
2019-03-28T09:56:37.311Z,16.04
2019-03-28T09:57:37.300Z,16.23
2019-03-28T09:58:37.279Z,16.41
2019-03-28T09:59:37.300Z,16.42
2019-03-28T10:00:37.273Z,16.61
2019-03-28T10:01:37.242Z,16.75
2019-03-28T10:02:37.233Z,16.87
2019-03-28T10:03:37.225Z,16.94
2019-03-28T10:04:37.233Z,17.02
2019-03-28T10:05:38.127Z,17.12
2019-03-28T10:06:37.193Z,17.24
2019-03-28T10:07:38.646Z,17.27
2019-03-28T10:08:37.172Z,17.45
2019-03-28T10:09:37.382Z,17.56
2019-03-28T10:10:37.150Z,17.64
2019-03-28T10:11:37.151Z,17.76
2019-03-28T10:12:37.128Z,17.85
2019-03-28T10:13:37.110Z,17.92
2019-03-28T10:14:37.128Z,18.04
2019-03-28T10:15:37.308Z,18.15
2019-03-28T10:16:40.157Z,18.22
2019-03-28T10:17:37.071Z,18.22
2019-03-28T10:18:37.059Z,18.23
2019-03-28T10:19:37.063Z,18.29
2019-03-28T10:20:37.032Z,18.34
2019-03-28T10:21:37.597Z,18.33
2019-03-28T10:22:37.024Z,18.43
2019-03-28T10:23:39.751Z,18.40
2019-03-28T10:24:37.014Z,18.49
2019-03-28T10:25:36.993Z,18.53
2019-03-28T10:26:37.001Z,18.49
2019-03-28T10:27:36.961Z,18.53
2019-03-28T10:28:36.960Z,18.58
2019-03-28T10:29:36.946Z,18.56
2019-03-28T10:30:36.933Z,18.59
2019-03-28T10:31:36.920Z,18.70
2019-03-28T10:32:36.928Z,18.65
2019-03-28T10:33:36.895Z,18.63
2019-03-28T10:34:36.886Z,18.53
2019-03-28T10:35:36.877Z,18.73
2019-03-28T10:36:36.907Z,18.70
2019-03-28T10:37:36.857Z,18.81
2019-03-28T10:38:36.850Z,18.83
2019-03-28T10:39:36.843Z,18.95
2019-03-28T10:40:36.842Z,18.95
2019-03-28T10:41:39.691Z,19.02
2019-03-28T10:42:36.817Z,18.99
2019-03-28T10:43:36.814Z,19.14
2019-03-28T10:44:36.781Z,19.15
2019-03-28T10:45:36.762Z,19.18
2019-03-28T10:46:36.754Z,19.34
2019-03-28T10:47:36.745Z,19.24
2019-03-28T10:48:36.753Z,19.34
2019-03-28T10:49:36.727Z,19.37
2019-03-28T10:50:41.653Z,19.36
2019-03-28T10:51:37.699Z,19.36
2019-03-28T10:52:36.688Z,19.36
2019-03-28T10:53:36.688Z,19.40
2019-03-28T10:54:36.684Z,19.36
2019-03-28T10:55:36.673Z,19.44
2019-03-28T10:56:50.774Z,19.54
2019-03-28T10:57:37.632Z,19.54
2019-03-28T10:58:36.641Z,19.55
2019-03-28T10:59:36.637Z,19.67
2019-03-28T11:00:36.600Z,19.66
2019-03-28T11:01:49.073Z,19.71
2019-03-28T11:02:38.683Z,19.81
2019-03-28T11:03:36.571Z,19.82
2019-03-28T11:04:36.580Z,19.82
2019-03-28T11:05:36.646Z,19.92
2019-03-28T11:06:36.539Z,19.92
2019-03-28T11:07:36.532Z,20.03
2019-03-28T11:08:36.805Z,20.06
2019-03-28T11:09:36.534Z,20.07
2019-03-28T11:10:36.500Z,20.28
2019-03-28T11:11:36.487Z,20.22
2019-03-28T11:12:36.471Z,20.40
2019-03-28T11:13:36.497Z,20.41
2019-03-28T11:14:36.453Z,20.52
2019-03-28T11:15:36.464Z,20.59
2019-03-28T11:16:36.434Z,20.60
2019-03-28T11:17:36.437Z,20.59
2019-03-28T11:18:36.412Z,20.60
2019-03-28T11:19:36.399Z,20.69
2019-03-28T11:20:39.859Z,20.70
2019-03-28T11:21:36.399Z,20.65
2019-03-28T11:22:36.369Z,20.74
2019-03-28T11:23:36.357Z,20.77
2019-03-28T11:24:36.352Z,20.85
2019-03-28T11:25:36.336Z,20.85
2019-03-28T11:26:36.340Z,20.99
2019-03-28T11:27:36.341Z,20.93
2019-03-28T11:28:36.333Z,20.99
2019-03-28T11:29:36.302Z,21.05
2019-03-28T11:30:36.279Z,21.09
2019-03-28T11:31:46.200Z,21.15
2019-03-28T11:32:37.299Z,21.21
2019-03-28T11:33:36.248Z,21.30
2019-03-28T11:34:36.237Z,21.37
2019-03-28T11:35:36.228Z,21.61
2019-03-28T11:36:36.210Z,21.69
2019-03-28T11:37:36.206Z,21.73
2019-03-28T11:38:36.205Z,21.76
2019-03-28T11:39:36.181Z,21.76
2019-03-28T11:40:36.186Z,21.75
2019-03-28T11:41:36.170Z,21.76
2019-03-28T11:42:36.158Z,21.67
2019-03-28T11:43:36.141Z,21.64
2019-03-28T11:44:36.120Z,21.66
2019-03-28T11:45:36.118Z,21.69
2019-03-28T11:46:36.127Z,21.67
2019-03-28T11:47:36.121Z,21.55
2019-03-28T11:48:36.082Z,21.54
2019-03-28T11:49:36.072Z,21.50
2019-03-28T11:50:36.061Z,21.48
2019-03-28T11:51:36.521Z,21.40
2019-03-28T11:52:36.046Z,21.39
2019-03-28T11:53:36.051Z,21.32
2019-03-28T11:54:36.034Z,21.21
2019-03-28T11:55:36.000Z,21.07
2019-03-28T11:56:35.993Z,20.92
2019-03-28T11:57:36.030Z,20.87
2019-03-28T11:58:35.993Z,20.84
2019-03-28T11:59:35.982Z,20.80
2019-03-28T12:00:35.958Z,20.82
2019-03-28T12:01:35.956Z,20.74
2019-03-28T12:02:35.953Z,20.74
2019-03-28T12:03:35.928Z,20.80
2019-03-28T12:04:38.606Z,20.75
2019-03-28T12:05:35.897Z,20.74
2019-03-28T12:06:35.904Z,20.92
2019-03-28T12:07:35.884Z,20.95
2019-03-28T12:08:35.892Z,21.06
2019-03-28T12:09:35.869Z,21.12
2019-03-28T12:10:35.841Z,21.15
2019-03-28T12:11:35.832Z,21.18
2019-03-28T12:12:35.819Z,21.22
2019-03-28T12:13:44.793Z,21.29
2019-03-28T12:14:36.823Z,21.29
2019-03-28T12:15:35.795Z,21.30
2019-03-28T12:16:35.777Z,21.37
2019-03-28T12:17:35.793Z,21.32
2019-03-28T12:18:35.757Z,21.27
2019-03-28T12:19:35.762Z,21.32
2019-03-28T12:20:35.754Z,21.29
2019-03-28T12:21:35.724Z,21.37
2019-03-28T12:22:35.707Z,21.51
2019-03-28T12:23:35.706Z,21.54
2019-03-28T12:24:35.709Z,21.52
2019-03-28T12:25:35.680Z,21.48
2019-03-28T12:26:35.694Z,21.50
2019-03-28T12:27:35.658Z,21.51
2019-03-28T12:28:35.647Z,21.50
2019-03-28T12:29:36.051Z,21.55
2019-03-28T12:30:35.627Z,21.55
2019-03-28T12:31:35.619Z,21.50
2019-03-28T12:32:35.639Z,21.36
2019-03-28T12:33:35.590Z,21.37
2019-03-28T12:34:35.584Z,21.36
2019-03-28T12:35:35.590Z,21.30
2019-03-28T12:36:35.568Z,21.17
2019-03-28T12:37:36.705Z,21.00
2019-03-28T12:38:35.543Z,20.88
2019-03-28T12:39:35.529Z,20.78
2019-03-28T12:40:35.535Z,20.58
2019-03-28T12:41:35.503Z,20.48
2019-03-28T12:42:35.511Z,20.18
2019-03-28T12:43:35.486Z,20.04
2019-03-28T12:44:35.484Z,19.88
2019-03-28T12:45:35.463Z,19.71
2019-03-28T12:46:35.474Z,19.59
2019-03-28T12:47:42.305Z,19.39
2019-03-28T12:48:36.425Z,19.34
2019-03-28T12:49:35.423Z,19.18
2019-03-28T12:50:35.408Z,19.09
2019-03-28T12:51:35.403Z,19.02
2019-03-28T12:52:35.398Z,18.98
2019-03-28T12:53:36.067Z,18.84
2019-03-28T12:54:35.399Z,18.83
2019-03-28T12:55:35.349Z,18.73
2019-03-28T12:56:35.359Z,18.56
2019-03-28T12:57:35.344Z,18.45
2019-03-28T12:58:35.322Z,18.29
2019-03-28T12:59:35.313Z,18.19
2019-03-28T13:00:35.303Z,18.18
2019-03-28T13:01:35.309Z,18.18
2019-03-28T13:02:35.315Z,18.03
2019-03-28T13:03:45.384Z,18.01
2019-03-28T13:04:36.257Z,18.04
2019-03-28T13:05:35.259Z,17.95
2019-03-28T13:06:35.231Z,17.89
2019-03-28T13:07:35.232Z,17.85
2019-03-28T13:08:35.210Z,17.82
2019-03-28T13:09:35.861Z,17.80
2019-03-28T13:10:35.198Z,17.78
2019-03-28T13:11:35.182Z,17.76
2019-03-28T13:12:42.230Z,17.70
2019-03-28T13:13:42.191Z,17.68
2019-03-28T13:14:42.191Z,17.65
2019-03-28T13:15:42.688Z,17.65
2019-03-28T13:16:42.170Z,17.54
2019-03-28T13:17:42.151Z,17.45
2019-03-28T13:18:42.162Z,17.41
2019-03-28T13:19:42.132Z,17.42
2019-03-28T13:20:43.134Z,17.46
2019-03-28T13:21:35.066Z,17.46
2019-03-28T13:22:35.056Z,17.45
2019-03-28T13:23:35.047Z,17.42
2019-03-28T13:24:35.059Z,17.57
2019-03-28T13:25:35.040Z,17.41
2019-03-28T13:26:35.006Z,17.42
2019-03-28T13:27:36.431Z,17.46
2019-03-28T13:28:34.987Z,17.38
2019-03-28T13:29:34.975Z,17.42
2019-03-28T13:30:35.046Z,17.49
2019-03-28T13:31:34.951Z,17.41
2019-03-28T13:32:41.648Z,17.42
2019-03-28T13:33:35.932Z,17.34
2019-03-28T13:34:34.912Z,17.38
2019-03-28T13:35:35.528Z,17.33
2019-03-28T13:36:34.899Z,17.36
2019-03-28T13:37:34.886Z,17.26
2019-03-28T13:38:34.879Z,17.15
2019-03-28T13:39:34.857Z,17.08
2019-03-28T13:40:34.868Z,17.09
2019-03-28T13:41:34.837Z,17.05
2019-03-28T13:42:34.869Z,17.01
2019-03-28T13:43:34.824Z,17.08
2019-03-28T13:44:34.821Z,16.96
2019-03-28T13:45:34.790Z,17.02
2019-03-28T13:46:34.796Z,17.02
2019-03-28T13:47:34.773Z,16.97
2019-03-28T13:48:34.765Z,17.01
2019-03-28T13:49:34.756Z,16.89
2019-03-28T13:50:34.744Z,16.93
2019-03-28T13:51:34.768Z,16.97
2019-03-28T13:52:34.724Z,16.91
2019-03-28T13:53:39.736Z,16.96
2019-03-28T13:54:35.695Z,16.94
2019-03-28T13:55:34.701Z,16.97
2019-03-28T13:56:34.707Z,17.05
2019-03-28T13:57:34.715Z,16.94
2019-03-28T13:58:34.656Z,17.02
2019-03-28T13:59:35.470Z,16.99
2019-03-28T14:00:34.631Z,17.09
2019-03-28T14:01:34.650Z,17.01
2019-03-28T14:02:34.659Z,17.01
2019-03-28T14:03:34.608Z,17.05
2019-03-28T14:04:34.587Z,16.97
2019-03-28T14:05:34.598Z,17.04
2019-03-28T14:06:34.584Z,17.01
2019-03-28T14:07:34.580Z,16.93
2019-03-28T14:08:34.551Z,16.89
2019-03-28T14:09:34.540Z,16.93
2019-03-28T14:10:34.525Z,16.86
2019-03-28T14:11:34.524Z,16.81
2019-03-28T14:12:34.527Z,16.86
2019-03-28T14:13:34.492Z,16.78
2019-03-28T14:14:34.480Z,16.74
2019-03-28T14:15:34.473Z,16.81
2019-03-28T14:16:34.476Z,16.83
2019-03-28T14:17:35.077Z,16.83
2019-03-28T14:18:34.435Z,16.83
2019-03-28T14:19:34.492Z,16.81
2019-03-28T14:20:34.427Z,16.84
2019-03-28T14:21:34.414Z,16.90
2019-03-28T14:22:34.427Z,16.86
2019-03-28T14:23:34.392Z,16.87
2019-03-28T14:24:34.371Z,16.86
2019-03-28T14:25:34.669Z,16.89
2019-03-28T14:26:37.504Z,16.84
2019-03-28T14:27:34.378Z,16.97
2019-03-28T14:28:34.354Z,16.83
2019-03-28T14:29:34.328Z,16.79
2019-03-28T14:30:34.309Z,16.87
2019-03-28T14:31:34.294Z,16.87
2019-03-28T14:32:34.282Z,16.81
2019-03-28T14:33:34.283Z,16.58
2019-03-28T14:34:34.286Z,16.64
2019-03-28T14:35:34.271Z,16.57
2019-03-28T14:36:34.239Z,16.47
2019-03-28T14:37:34.229Z,16.42
2019-03-28T14:38:37.345Z,16.42
2019-03-28T14:39:35.365Z,16.38
2019-03-28T14:40:34.216Z,16.39
2019-03-28T14:41:34.193Z,16.24
2019-03-28T14:42:34.186Z,16.33
2019-03-28T14:43:34.166Z,16.29
2019-03-28T14:44:34.173Z,16.28
2019-03-28T14:45:34.147Z,16.23
2019-03-28T14:46:34.132Z,16.20
2019-03-28T14:47:34.126Z,16.23
2019-03-28T14:48:34.115Z,16.20
2019-03-28T14:49:34.276Z,16.13
2019-03-28T14:50:34.138Z,16.15
2019-03-28T14:51:34.083Z,16.15
2019-03-28T14:52:35.224Z,16.13
2019-03-28T14:53:34.065Z,16.05
2019-03-28T14:54:34.065Z,15.88
2019-03-28T14:55:34.056Z,15.88
2019-03-28T14:56:34.032Z,15.90
2019-03-28T14:57:34.022Z,15.88
2019-03-28T14:58:34.004Z,15.88
2019-03-28T14:59:34.681Z,15.79
2019-03-28T15:00:33.986Z,15.75
2019-03-28T15:01:33.988Z,15.77
2019-03-28T15:02:33.961Z,15.84
2019-03-28T15:03:33.986Z,15.73
2019-03-28T15:04:33.945Z,15.68
2019-03-28T15:05:33.933Z,15.68
2019-03-28T15:06:33.937Z,15.59
2019-03-28T15:07:33.912Z,15.54
2019-03-28T15:08:33.900Z,15.64
2019-03-28T15:09:33.887Z,15.65
2019-03-28T15:10:33.881Z,15.54
2019-03-28T15:11:33.865Z,15.62
2019-03-28T15:12:33.877Z,15.64
2019-03-28T15:13:33.843Z,15.64
2019-03-28T15:14:33.869Z,15.59
2019-03-28T15:15:33.825Z,15.68
2019-03-28T15:16:33.805Z,15.65
2019-03-28T15:17:33.825Z,15.72
2019-03-28T15:18:33.798Z,15.79
2019-03-28T15:19:33.780Z,15.72
2019-03-28T15:20:33.770Z,15.72
2019-03-28T15:21:33.765Z,15.82
2019-03-28T15:22:33.741Z,15.76
2019-03-28T15:23:33.756Z,15.77
2019-03-28T15:24:33.773Z,15.76
2019-03-28T15:26:41.088Z,15.73
2019-03-28T15:27:33.703Z,15.79
2019-03-28T15:29:21.923Z,15.65
2019-03-28T15:29:40.486Z,15.62
2019-03-28T15:30:41.420Z,15.62
2019-03-28T15:32:55.926Z,15.55
2019-03-28T15:33:57.953Z,15.54
2019-03-28T15:35:02.164Z,15.61
2019-03-28T15:35:55.023Z,15.52
2019-03-28T15:36:54.942Z,15.64
2019-03-28T15:37:54.984Z,15.64
2019-03-28T15:38:54.937Z,15.62
2019-03-28T15:39:55.052Z,15.64
2019-03-28T15:40:54.894Z,15.68
2019-03-28T15:41:54.901Z,15.67
2019-03-28T15:43:17.070Z,15.65
2019-03-28T15:43:54.879Z,15.70
2019-03-28T15:44:54.901Z,15.64
2019-03-28T15:45:54.841Z,15.67
2019-03-28T15:46:54.828Z,15.62
2019-03-28T15:47:54.834Z,15.62
2019-03-28T15:48:54.815Z,15.57
2019-03-28T15:49:54.818Z,15.62
2019-03-28T15:50:54.823Z,15.55
2019-03-28T15:51:54.779Z,15.58
2019-03-28T15:52:54.778Z,15.52
2019-03-28T15:53:54.754Z,15.35
2019-03-28T15:54:54.740Z,15.42
2019-03-28T15:55:54.762Z,15.35
2019-03-28T15:56:54.735Z,15.28
2019-03-28T15:57:54.705Z,15.24
2019-03-28T15:58:54.694Z,15.11
2019-03-28T15:59:54.690Z,15.18
2019-03-28T16:00:54.707Z,15.10
2019-03-28T16:01:55.291Z,14.97
2019-03-28T16:02:58.263Z,15.06
2019-03-28T16:03:54.654Z,15.02
2019-03-28T16:04:54.669Z,15.06
2019-03-28T16:05:58.498Z,14.99
2019-03-28T16:06:54.708Z,14.97
2019-03-28T16:07:54.599Z,15.02
2019-03-28T16:08:54.589Z,15.04
2019-03-28T16:09:54.575Z,14.99
2019-03-28T16:10:54.763Z,14.99
2019-03-28T16:12:02.591Z,15.03
2019-03-28T16:12:55.541Z,15.04
2019-03-28T16:13:54.534Z,14.99
2019-03-28T16:14:55.730Z,14.99
2019-03-28T16:15:54.517Z,14.94
2019-03-28T16:16:55.177Z,14.94
2019-03-28T16:17:57.560Z,14.96
2019-03-28T16:18:54.483Z,14.85
2019-03-28T16:19:54.467Z,14.77
2019-03-28T16:20:54.460Z,14.79
2019-03-28T16:21:54.462Z,14.78
2019-03-28T16:22:54.432Z,14.66
2019-03-28T16:23:54.436Z,14.69
2019-03-28T16:24:54.412Z,14.65
2019-03-28T16:25:54.402Z,14.60
2019-03-28T16:26:54.495Z,14.58
2019-03-28T16:27:54.383Z,14.55
2019-03-28T16:28:56.487Z,14.47
2019-03-28T16:29:54.607Z,14.41
2019-03-28T16:30:54.345Z,14.48
2019-03-28T16:31:54.367Z,14.45
2019-03-28T16:32:54.428Z,14.45
2019-03-28T16:34:06.180Z,14.32
2019-03-28T16:34:55.336Z,14.33
2019-03-28T16:35:55.203Z,14.32
2019-03-28T16:36:54.299Z,14.28
2019-03-28T16:37:54.327Z,14.30
2019-03-28T16:38:54.277Z,14.25
2019-03-28T16:39:54.269Z,14.26
2019-03-28T16:40:54.242Z,14.23
2019-03-28T16:41:54.265Z,14.14
2019-03-28T16:42:54.211Z,14.14
2019-03-28T16:43:54.249Z,14.14
2019-03-28T16:44:54.188Z,14.00
2019-03-28T16:45:54.209Z,13.99
2019-03-28T16:46:54.176Z,14.00
2019-03-28T16:47:54.158Z,14.03
2019-03-28T16:48:54.152Z,14.00
2019-03-28T16:49:54.136Z,13.93
2019-03-28T16:50:54.140Z,13.89
2019-03-28T16:51:54.132Z,13.92
2019-03-28T16:52:54.108Z,13.86
2019-03-28T16:53:54.093Z,13.89
2019-03-28T16:54:54.082Z,13.87
2019-03-28T16:55:54.598Z,13.86
2019-03-28T16:56:54.061Z,13.81
2019-03-28T16:57:54.140Z,13.79
2019-03-28T16:58:55.509Z,13.79
2019-03-28T16:59:54.111Z,13.67
2019-03-28T17:00:54.024Z,13.65
2019-03-28T17:01:54.024Z,13.72
2019-03-28T17:02:54.032Z,13.72
2019-03-28T17:03:54.083Z,13.67
2019-03-28T17:04:53.981Z,13.63
2019-03-28T17:05:53.977Z,13.56
2019-03-28T17:06:53.978Z,13.54
2019-03-28T17:07:54.033Z,13.57
2019-03-28T17:08:53.965Z,13.63
2019-03-28T17:09:53.936Z,13.59
2019-03-28T17:10:53.930Z,13.52
2019-03-28T17:11:53.908Z,13.47
2019-03-28T17:12:53.913Z,13.49
2019-03-28T17:13:53.882Z,13.44
2019-03-28T17:14:53.881Z,13.46
2019-03-28T17:15:53.871Z,13.41
2019-03-28T17:16:53.858Z,13.41
2019-03-28T17:17:53.873Z,13.38
2019-03-28T17:18:53.854Z,13.30
2019-03-28T17:19:53.824Z,13.25
2019-03-28T17:20:53.823Z,13.27
2019-03-28T17:21:53.799Z,13.19
2019-03-28T17:22:53.809Z,13.22
2019-03-28T17:23:53.932Z,13.22
2019-03-28T17:24:53.858Z,13.19
2019-03-28T17:25:53.758Z,13.15
2019-03-28T17:26:53.874Z,13.19
2019-03-28T17:27:53.786Z,13.12
2019-03-28T17:28:53.744Z,13.13
2019-03-28T17:29:53.722Z,13.12
2019-03-28T17:30:53.725Z,13.00